Time;durP1;ratioP1;P1;durP2;ratioP2;P2;SDS_P1;SDS_P2;PMS_P1;PMS_P2;Temp;Humidity;BMP_temperature;BMP_pressure;BME280_temperature;BME280_humidity;BME280_pressure;Samples;Min_cycle;Max_cycle;Signal;HPM_P1;HPM_P2
2023/02/18 00:01:31;;;;;;;8.13;3.42;;;26.90;78.30;;;;;;5044231;28;20021;-50
2023/02/18 00:03:59;;;;;;;10.77;4.07;;;26.90;78.40;;;;;;5044225;28;20033;-53
2023/02/18 00:06:31;;;;;;;19.40;4.32;;;26.90;78.30;;;;;;5044211;28;20318;-48
2023/02/18 00:09:00;;;;;;;;;;;26.80;78.10;;;;;;5044712;28;20344;-52
2023/02/18 00:11:29;;;;;;;9.70;2.97;;;26.80;78.20;;;;;;5051203;28;20187;-50
2023/02/18 00:13:58;;;;;;;20.13;4.13;;;26.80;78.10;;;;;;5063917;28;20252;-49
2023/02/18 00:16:26;;;;;;;12.65;4.03;;;26.80;78.10;;;;;;5064107;28;20039;-54
2023/02/18 00:18:57;;;;;;;8.18;3.15;;;26.80;78.00;;;;;;5063869;28;20032;-52
2023/02/18 00:21:25;;;;;;;7.28;3.22;;;26.80;77.90;;;;;;5064029;28;20043;-51
2023/02/18 00:23:51;;;;;;;9.88;3.20;;;26.80;77.70;;;;;;5064387;28;20040;-53
2023/02/18 00:26:19;;;;;;;7.53;3.05;;;26.80;77.60;;;;;;5064170;28;20017;-47
2023/02/18 00:28:50;;;;;;;8.80;2.80;;;26.70;77.50;;;;;;5064297;28;20340;-52
2023/02/18 00:31:27;;;;;;;7.22;2.97;;;26.80;77.60;;;;;;5063682;28;20024;-52
2023/02/18 00:33:53;;;;;;;4.85;2.40;;;26.80;77.50;;;;;;5064491;28;20103;-53
2023/02/18 00:36:21;;;;;;;4.45;2.17;;;26.70;77.20;;;;;;5063907;28;20339;-48
2023/02/18 00:38:50;;;;;;;5.50;2.10;;;26.70;77.00;;;;;;5064186;28;20143;-50
2023/02/18 00:41:19;;;;;;;6.65;2.47;;;26.70;77.00;;;;;;5063691;28;20044;-54
2023/02/18 00:43:47;;;;;;;7.70;2.65;;;26.70;77.00;;;;;;5064279;28;20032;-54
2023/02/18 00:46:14;;;;;;;6.15;2.58;;;26.70;76.90;;;;;;5063815;28;20040;-48
2023/02/18 00:48:41;;;;;;;5.70;2.40;;;26.70;77.10;;;;;;5063720;28;20126;-55
2023/02/18 00:51:08;;;;;;;5.65;2.42;;;26.70;77.20;;;;;;5063618;28;20029;-50
2023/02/18 00:53:36;;;;;;;6.32;2.70;;;26.70;77.30;;;;;;5064077;28;20013;-50
2023/02/18 00:56:03;;;;;;;6.85;2.45;;;26.70;77.20;;;;;;5063530;28;20100;-46
2023/02/18 00:58:29;;;;;;;6.38;2.63;;;26.70;77.30;;;;;;5064225;28;20025;-52
2023/02/18 01:00:56;;;;;;;7.38;3.08;;;26.70;77.60;;;;;;5066209;28;20045;-51
2023/02/18 01:03:26;;;;;;;7.85;2.60;;;26.60;77.40;;;;;;5067310;28;20040;-47
2023/02/18 01:05:54;;;;;;;6.18;2.80;;;26.60;77.60;;;;;;5067619;28;20083;-54
2023/02/18 01:08:22;;;;;;;7.82;2.92;;;26.60;77.60;;;;;;5067954;28;20122;-56
2023/02/18 01:10:53;;;;;;;5.18;2.78;;;26.60;77.50;;;;;;5067332;28;20029;-49
2023/02/18 01:13:20;;;;;;;4.38;2.45;;;26.60;77.70;;;;;;5067930;28;20036;-47
2023/02/18 01:15:47;;;;;;;7.97;2.65;;;26.60;77.80;;;;;;5067522;28;20037;-50
2023/02/18 01:18:14;;;;;;;8.63;2.60;;;26.60;77.80;;;;;;5067749;28;20340;-49
2023/02/18 01:20:42;;;;;;;8.13;2.40;;;26.60;77.70;;;;;;5067868;28;20047;-50
2023/02/18 01:23:09;;;;;;;7.70;2.78;;;26.60;77.60;;;;;;5067663;28;20032;-51
2023/02/18 01:25:36;;;;;;;6.35;2.38;;;26.60;77.50;;;;;;5067409;28;20033;-49
2023/02/18 01:28:07;;;;;;;4.93;2.10;;;26.60;77.60;;;;;;5067749;28;20304;-50
2023/02/18 01:30:34;;;;;;;6.88;2.35;;;26.60;77.60;;;;;;5067136;28;20190;-55
2023/02/18 01:33:01;;;;;;;4.95;2.30;;;26.60;77.70;;;;;;5067476;28;20063;-48
2023/02/18 01:35:27;;;;;;;5.97;2.50;;;26.60;77.40;;;;;;5067408;28;20254;-49
2023/02/18 01:37:55;;;;;;;4.80;2.30;;;26.60;77.40;;;;;;5067249;28;20045;-51
2023/02/18 01:40:25;;;;;;;6.72;2.20;;;26.60;77.40;;;;;;5068120;28;20202;-50
2023/02/18 01:42:52;;;;;;;6.90;2.70;;;26.50;77.60;;;;;;5071218;28;20013;-59
2023/02/18 01:45:36;;;;;;;6.72;2.60;;;26.50;77.20;;;;;;5074814;28;20102;-53
2023/02/18 01:48:10;;;;;;;8.57;2.80;;;26.50;77.10;;;;;;5073154;28;20024;-51
2023/02/18 01:50:40;;;;;;;8.32;3.03;;;26.50;77.30;;;;;;5067472;28;20088;-46
2023/02/18 01:53:07;;;;;;;9.18;3.40;;;26.60;77.30;;;;;;5069567;28;20037;-47
2023/02/18 01:55:36;;;;;;;12.07;3.85;;;26.60;77.50;;;;;;5079049;28;20118;-54
2023/02/18 01:58:03;;;;;;;7.13;3.58;;;26.60;77.60;;;;;;5082914;28;20024;-55
2023/02/18 02:00:31;;;;;;;9.63;4.57;;;26.50;77.60;;;;;;5074206;28;20202;-51
2023/02/18 02:02:58;;;;;;;11.15;4.15;;;26.60;77.40;;;;;;5086921;28;20025;-47
2023/02/18 02:05:29;;;;;;;97.28;12.07;;;26.50;77.60;;;;;;5086609;28;20020;-48
2023/02/18 02:07:56;;;;;;;43.47;8.13;;;26.60;77.60;;;;;;5086821;28;20016;-49
2023/02/18 02:10:22;;;;;;;39.33;6.13;;;26.60;77.90;;;;;;5086560;28;20278;-46
2023/02/18 02:13:14;;;;;;;52.63;6.55;;;26.50;77.50;;;;;;5086288;28;20041;-49
2023/02/18 02:15:58;;;;;;;16.88;3.65;;;26.30;77.30;;;;;;5086938;28;20343;-57
2023/02/18 02:18:39;;;;;;;13.35;3.08;;;26.10;77.60;;;;;;5065025;28;20025;-50
2023/02/18 02:21:39;;;;;;;16.45;3.85;;;26.00;78.50;;;;;;5066168;28;20040;-49
2023/02/18 02:24:24;;;;;;;14.45;3.30;;;26.00;79.00;;;;;;5066323;28;20099;-52
2023/02/18 02:27:13;;;;;;;13.95;3.55;;;26.10;79.00;;;;;;5066453;28;20064;-54
2023/02/18 02:30:06;;;;;;;14.48;3.05;;;26.20;78.80;;;;;;5065926;28;20066;-52
2023/02/18 02:32:53;;;;;;;11.88;3.15;;;26.20;78.70;;;;;;5066502;28;20052;-50
2023/02/18 02:35:23;;;;;;;11.68;2.90;;;26.30;78.70;;;;;;5081658;28;20024;-48
2023/02/18 02:37:59;;;;;;;7.55;2.67;;;26.30;78.60;;;;;;5082944;28;20262;-51
2023/02/18 02:40:42;;;;;;;8.50;2.50;;;26.40;78.40;;;;;;5058711;28;20059;-51
2023/02/18 02:43:47;;;;;;;12.02;2.78;;;26.40;78.20;;;;;;5070918;28;20040;-49
2023/02/18 02:46:20;;;;;;;11.10;2.72;;;26.40;78.10;;;;;;5058698;28;20036;-51
2023/02/18 02:49:07;;;;;;;8.13;2.33;;;26.40;77.90;;;;;;5065721;28;20063;-53
2023/02/18 02:51:52;;;;;;;6.80;3.15;;;26.40;77.80;;;;;;5064289;28;20048;-53
2023/02/18 02:54:22;;;;;;;5.30;2.40;;;26.50;78.10;;;;;;5040947;28;20084;-50
2023/02/18 02:56:49;;;;;;;3.67;2.70;;;26.50;78.20;;;;;;5054048;28;20017;-49
2023/02/18 02:59:26;;;;;;;7.03;2.58;;;26.50;78.30;;;;;;5052389;28;20065;-49
2023/02/18 03:02:17;;;;;;;6.03;2.75;;;26.50;78.20;;;;;;5045527;28;20076;-54
2023/02/18 03:04:53;;;;;;;4.35;2.50;;;26.50;78.30;;;;;;5050464;28;20053;-52
2023/02/18 03:07:45;;;;;;;4.93;2.45;;;26.50;78.30;;;;;;5054271;28;20080;-48
2023/02/18 03:10:44;;;;;;;5.40;2.40;;;26.50;78.20;;;;;;5065529;28;20210;-49
2023/02/18 03:13:45;;;;;;;4.50;2.40;;;26.50;78.30;;;;;;5065852;28;20047;-49
2023/02/18 03:16:42;;;;;;;4.40;2.70;;;26.50;78.30;;;;;;5035131;28;20214;-53
2023/02/18 03:19:36;;;;;;;4.78;2.47;;;26.50;78.10;;;;;;5066473;28;20036;-53
2023/02/18 03:22:20;;;;;;;7.25;2.50;;;26.60;78.00;;;;;;5078071;28;20213;-50
2023/02/18 03:24:50;;;;;;;5.00;2.20;;;26.50;78.00;;;;;;5072445;28;20028;-47
2023/02/18 03:27:26;;;;;;;5.10;2.30;;;26.60;78.30;;;;;;5068359;28;20367;-50
2023/02/18 03:30:01;;;;;;;5.00;2.25;;;26.50;78.10;;;;;;5079852;28;20055;-54
2023/02/18 03:32:30;;;;;;;4.15;2.20;;;26.60;77.90;;;;;;5085121;28;20299;-52
2023/02/18 03:35:12;;;;;;;7.13;2.30;;;26.60;77.80;;;;;;5085268;28;20059;-55
2023/02/18 03:38:03;;;;;;;2.87;2.03;;;26.50;77.80;;;;;;5084920;28;20031;-48
2023/02/18 03:40:30;;;;;;;5.15;2.47;;;26.50;77.60;;;;;;5084639;28;20363;-50
2023/02/18 03:43:00;;;;;;;5.22;2.30;;;26.60;77.80;;;;;;5085518;28;20031;-53
2023/02/18 03:45:27;;;;;;;4.55;2.20;;;26.50;78.10;;;;;;5084680;28;20020;-48
2023/02/18 03:47:58;;;;;;;6.72;2.35;;;26.50;78.30;;;;;;5084880;28;20235;-55
2023/02/18 03:50:24;;;;;;;4.28;2.40;;;26.50;78.40;;;;;;5084604;28;20090;-51
2023/02/18 03:52:51;;;;;;;2.80;1.77;;;26.50;78.50;;;;;;5084655;28;20020;-50
2023/02/18 03:55:18;;;;;;;3.47;2.28;;;26.50;78.50;;;;;;5084774;28;20367;-56
2023/02/18 03:57:44;;;;;;;7.07;2.38;;;26.50;78.50;;;;;;5084865;28;20093;-53
2023/02/18 04:00:11;;;;;;;3.50;2.20;;;26.50;78.50;;;;;;5084386;28;20024;-48
2023/02/18 04:02:38;;;;;;;6.25;2.10;;;26.50;78.50;;;;;;5066641;28;20236;-48
2023/02/18 04:05:05;;;;;;;5.28;2.10;;;26.50;78.50;;;;;;5066444;28;20036;-49
2023/02/18 04:07:32;;;;;;;5.13;2.00;;;26.50;78.50;;;;;;5080210;28;20013;-52
2023/02/18 04:09:59;;;;;;;2.78;2.22;;;26.50;78.50;;;;;;5064320;28;20200;-51
2023/02/18 04:12:26;;;;;;;3.50;2.30;;;26.50;78.40;;;;;;5064218;28;20256;-52
2023/02/18 04:14:52;;;;;;;3.33;1.90;;;26.50;78.30;;;;;;5068378;28;20078;-47
2023/02/18 04:17:19;;;;;;;3.83;2.35;;;26.50;78.40;;;;;;5074423;28;20025;-54
2023/02/18 04:19:45;;;;;;;5.03;2.20;;;26.50;78.40;;;;;;5064228;28;20316;-49
2023/02/18 04:22:12;;;;;;;5.22;2.15;;;26.50;78.30;;;;;;5064095;28;20082;-49
2023/02/18 04:24:38;;;;;;;4.22;2.40;;;26.50;78.30;;;;;;5064124;28;20033;-51
2023/02/18 04:27:05;;;;;;;3.67;2.38;;;26.50;78.40;;;;;;5064014;28;20029;-50
2023/02/18 04:29:32;;;;;;;4.63;2.03;;;26.50;79.00;;;;;;5063841;28;20087;-49
2023/02/18 04:31:58;;;;;;;3.35;2.38;;;26.40;78.80;;;;;;5064244;28;20023;-49
2023/02/18 04:34:25;;;;;;;6.72;2.30;;;26.50;78.50;;;;;;5063021;28;20032;-46
2023/02/18 04:36:51;;;;;;;5.00;2.00;;;26.40;78.50;;;;;;5063760;28;20311;-51
2023/02/18 04:39:18;;;;;;;5.22;2.25;;;26.40;78.70;;;;;;5081036;28;20357;-53
2023/02/18 04:41:45;;;;;;;5.50;2.38;;;26.40;78.70;;;;;;5083814;28;20034;-54
2023/02/18 04:44:11;;;;;;;3.95;2.17;;;26.40;78.70;;;;;;5081132;28;20221;-47
2023/02/18 04:46:38;;;;;;;4.57;2.25;;;26.40;78.80;;;;;;5063914;28;20022;-51
2023/02/18 04:49:04;;;;;;;4.13;2.60;;;26.40;78.60;;;;;;5063702;28;20025;-47
2023/02/18 04:51:31;;;;;;;2.95;2.40;;;26.40;78.70;;;;;;5063629;28;20023;-51
2023/02/18 04:53:58;;;;;;;4.97;2.55;;;26.30;78.60;;;;;;5063638;28;20426;-48
2023/02/18 04:56:24;;;;;;;5.55;2.42;;;26.30;78.50;;;;;;5063814;28;20041;-50
2023/02/18 04:58:51;;;;;;;3.78;2.67;;;26.30;78.50;;;;;;5064687;28;20020;-55
2023/02/18 05:01:17;;;;;;;3.75;2.20;;;26.30;78.50;;;;;;5064523;28;20024;-53
2023/02/18 05:03:44;;;;;;;3.42;2.20;;;26.30;78.60;;;;;;5063392;28;20078;-55
2023/02/18 05:06:11;;;;;;;3.65;2.30;;;26.30;78.50;;;;;;5083779;28;20235;-53
2023/02/18 05:08:38;;;;;;;5.32;2.40;;;26.30;78.60;;;;;;5077620;28;20020;-49
2023/02/18 05:11:06;;;;;;;5.47;2.20;;;26.40;78.70;;;;;;5083172;28;20055;-52
2023/02/18 05:13:33;;;;;;;3.30;2.22;;;26.30;78.70;;;;;;5071919;28;20297;-48
2023/02/18 05:16:01;;;;;;;3.30;2.28;;;26.40;78.80;;;;;;5083818;28;20034;-47
2023/02/18 05:18:28;;;;;;;4.20;2.10;;;26.40;78.80;;;;;;5084084;28;20313;-48
2023/02/18 05:20:54;;;;;;;3.75;2.15;;;26.40;78.80;;;;;;5081516;28;20332;-49
2023/02/18 05:23:21;;;;;;;5.47;2.22;;;26.30;78.70;;;;;;5064680;28;20048;-58
2023/02/18 05:25:48;;;;;;;2.97;2.33;;;26.30;79.00;;;;;;5064240;28;20025;-56
2023/02/18 05:28:14;;;;;;;3.75;2.15;;;26.30;78.80;;;;;;5064671;28;20028;-49
2023/02/18 05:30:41;;;;;;;5.28;2.30;;;26.30;78.70;;;;;;5064111;28;20025;-49
2023/02/18 05:33:07;;;;;;;3.20;1.95;;;26.30;78.70;;;;;;5063774;28;20056;-52
2023/02/18 05:35:34;;;;;;;3.63;1.92;;;26.40;78.90;;;;;;5063588;28;20013;-58
2023/02/18 05:38:00;;;;;;;2.95;2.20;;;26.30;78.70;;;;;;5074827;28;20321;-55
2023/02/18 05:40:27;;;;;;;2.95;2.20;;;26.30;78.60;;;;;;5064073;28;20225;-52
2023/02/18 05:42:54;;;;;;;3.30;2.10;;;26.30;78.70;;;;;;5063690;28;20013;-51
2023/02/18 05:45:20;;;;;;;5.57;2.33;;;26.30;78.60;;;;;;5064334;28;20079;-46
2023/02/18 05:47:47;;;;;;;2.67;1.98;;;26.30;78.70;;;;;;5067180;28;20028;-52
2023/02/18 05:50:13;;;;;;;3.17;2.15;;;26.30;78.50;;;;;;5074166;28;20052;-51
2023/02/18 05:52:40;;;;;;;4.13;2.17;;;26.30;78.50;;;;;;5082577;28;20043;-48
2023/02/18 05:55:07;;;;;;;3.90;2.17;;;26.30;78.60;;;;;;5071253;28;20364;-50
2023/02/18 05:57:36;;;;;;;5.50;2.08;;;26.30;78.50;;;;;;5070497;28;20083;-51
2023/02/18 06:00:05;;;;;;;5.65;2.00;;;26.30;78.50;;;;;;5076677;28;20025;-48
2023/02/18 06:02:31;;;;;;;4.57;2.30;;;26.30;78.60;;;;;;5070267;28;20173;-48
2023/02/18 06:04:58;;;;;;;3.25;2.13;;;26.30;78.60;;;;;;5081369;28;20060;-50
2023/02/18 06:07:24;;;;;;;4.25;2.03;;;26.30;78.80;;;;;;5076007;28;20319;-51
2023/02/18 06:09:51;;;;;;;4.30;2.45;;;26.30;78.70;;;;;;5067286;28;20277;-51
2023/02/18 06:12:17;;;;;;;5.30;2.40;;;26.30;78.70;;;;;;5066248;28;20067;-50
2023/02/18 06:14:44;;;;;;;4.07;2.33;;;26.20;78.70;;;;;;5066263;28;20066;-53
2023/02/18 06:17:14;;;;;;;3.53;2.05;;;26.30;78.80;;;;;;5066479;28;20029;-58
2023/02/18 06:19:41;;;;;;;4.57;2.42;;;26.20;78.80;;;;;;5066297;28;20027;-49
2023/02/18 06:22:07;;;;;;;5.20;2.15;;;26.30;78.70;;;;;;5066375;28;20029;-51
2023/02/18 06:24:34;;;;;;;4.28;2.47;;;26.20;78.80;;;;;;5066407;28;20029;-50
2023/02/18 06:27:01;;;;;;;4.35;2.40;;;26.20;78.90;;;;;;5084675;28;20232;-52
2023/02/18 06:29:30;;;;;;;6.65;2.55;;;26.30;79.10;;;;;;5086098;28;20040;-48
2023/02/18 06:31:57;;;;;;;3.45;2.30;;;26.20;79.00;;;;;;5074844;28;20020;-53
2023/02/18 06:34:24;;;;;;;5.30;2.70;;;26.30;79.00;;;;;;5065978;28;20036;-47
2023/02/18 06:36:51;;;;;;;4.18;2.13;;;26.30;79.10;;;;;;5066026;28;20079;-53
2023/02/18 06:39:17;;;;;;;4.15;2.45;;;26.20;79.00;;;;;;5066041;28;20336;-47
2023/02/18 06:41:44;;;;;;;4.82;2.40;;;26.20;79.10;;;;;;5066119;28;20033;-56
2023/02/18 06:44:11;;;;;;;4.38;2.38;;;26.20;79.40;;;;;;5065771;28;20025;-57
2023/02/18 06:46:37;;;;;;;6.60;2.90;;;26.20;79.40;;;;;;5065902;28;20104;-47
2023/02/18 06:49:04;;;;;;;3.25;2.45;;;26.20;79.60;;;;;;5080985;28;20024;-49
2023/02/18 06:51:30;;;;;;;4.00;2.30;;;26.20;79.60;;;;;;5085904;28;20016;-49
2023/02/18 06:53:57;;;;;;;5.55;2.40;;;26.20;79.50;;;;;;5085717;28;20036;-50
2023/02/18 06:56:24;;;;;;;3.53;2.28;;;26.20;79.40;;;;;;5085783;28;20087;-48
2023/02/18 06:58:50;;;;;;;4.45;2.50;;;26.20;79.50;;;;;;5084697;28;20056;-53
2023/02/18 07:01:17;;;;;;;2.65;2.38;;;26.20;79.40;;;;;;5077323;28;20013;-49
2023/02/18 07:03:43;;;;;;;5.38;2.30;;;26.20;79.40;;;;;;5074087;28;20062;-53
2023/02/18 07:06:10;;;;;;;5.28;2.70;;;26.20;79.20;;;;;;5085531;28;20103;-52
2023/02/18 07:08:37;;;;;;;3.67;2.25;;;26.20;79.30;;;;;;5073816;28;20029;-53
2023/02/18 07:11:04;;;;;;;4.45;2.58;;;26.20;79.10;;;;;;5071515;28;20048;-51
2023/02/18 07:13:31;;;;;;;4.25;2.33;;;26.20;79.10;;;;;;5071302;28;20032;-54
2023/02/18 07:15:57;;;;;;;4.70;2.55;;;26.20;79.20;;;;;;5068682;28;20092;-50
2023/02/18 07:18:24;;;;;;;3.65;2.45;;;26.30;79.10;;;;;;5072814;28;20025;-51
2023/02/18 07:20:52;;;;;;;3.60;2.53;;;26.20;78.90;;;;;;5079523;28;20185;-53
2023/02/18 07:23:18;;;;;;;3.53;2.42;;;26.20;79.00;;;;;;5070657;28;20033;-53
2023/02/18 07:25:45;;;;;;;3.13;2.22;;;26.20;79.00;;;;;;5066096;28;20017;-53
2023/02/18 07:28:11;;;;;;;3.03;2.30;;;26.20;79.30;;;;;;5073386;28;20097;-47
2023/02/18 07:30:38;;;;;;;5.35;2.90;;;26.20;79.30;;;;;;5084379;28;20025;-50
2023/02/18 07:33:06;;;;;;;3.50;2.50;;;26.20;79.40;;;;;;5072804;28;20029;-51
2023/02/18 07:35:33;;;;;;;4.32;2.70;;;26.20;79.30;;;;;;5078605;28;20095;-51
2023/02/18 07:38:01;;;;;;;4.75;2.60;;;26.20;79.80;;;;;;5064730;28;20324;-54
2023/02/18 07:40:28;;;;;;;5.57;2.58;;;26.20;79.30;;;;;;5064760;28;20063;-47
2023/02/18 07:42:55;;;;;;;5.40;2.72;;;26.20;79.20;;;;;;5064585;28;20306;-53
2023/02/18 07:45:21;;;;;;;6.03;2.50;;;26.20;79.30;;;;;;5064594;28;20309;-50
2023/02/18 07:47:48;;;;;;;7.18;2.67;;;26.20;79.30;;;;;;5079024;28;20033;-57
2023/02/18 07:50:14;;;;;;;3.30;2.45;;;26.10;79.20;;;;;;5084595;28;20023;-53
2023/02/18 07:52:41;;;;;;;3.67;2.40;;;26.20;79.30;;;;;;5084894;28;20023;-52
2023/02/18 07:55:08;;;;;;;4.05;2.80;;;26.10;79.20;;;;;;5084799;28;20083;-49
2023/02/18 07:57:56;;;;;;;5.40;2.70;;;26.10;79.80;;;;;;5084535;28;20024;-47
2023/02/18 08:00:21;;;;;;;3.25;2.50;;;26.10;79.40;;;;;;5084317;28;20079;-53
2023/02/18 08:02:47;;;;;;;4.70;2.47;;;26.10;79.20;;;;;;5084179;28;20331;-56
2023/02/18 08:05:14;;;;;;;4.20;2.60;;;26.10;79.30;;;;;;5084159;28;20048;-48
2023/02/18 08:07:41;;;;;;;5.50;2.78;;;26.10;79.40;;;;;;5080873;28;20296;-53
2023/02/18 08:10:07;;;;;;;4.00;2.72;;;26.10;80.10;;;;;;5064242;28;20031;-48
2023/02/18 08:12:34;;;;;;;5.32;2.42;;;26.10;79.60;;;;;;5063852;28;20052;-50
2023/02/18 08:15:01;;;;;;;5.78;2.47;;;26.10;79.50;;;;;;5064093;28;20021;-59
2023/02/18 08:17:27;;;;;;;6.20;3.08;;;26.10;79.40;;;;;;5064614;28;20028;-49
2023/02/18 08:19:54;;;;;;;8.30;2.90;;;26.00;79.20;;;;;;5064152;28;20224;-55
2023/02/18 08:22:20;;;;;;;4.32;2.75;;;26.00;79.20;;;;;;5064422;28;20037;-48
2023/02/18 08:24:47;;;;;;;4.55;2.67;;;26.00;79.10;;;;;;5064000;28;20063;-52
2023/02/18 08:27:13;;;;;;;3.13;2.50;;;26.00;79.30;;;;;;5064436;28;20025;-54
2023/02/18 08:29:40;;;;;;;4.55;2.72;;;26.00;79.30;;;;;;5063822;28;20040;-48
2023/02/18 08:32:06;;;;;;;5.47;2.67;;;26.00;79.50;;;;;;5064457;28;20320;-49
2023/02/18 08:34:33;;;;;;;4.68;2.92;;;26.00;79.40;;;;;;5063975;28;20039;-50
2023/02/18 08:37:01;;;;;;;4.57;2.60;;;26.00;79.30;;;;;;5064071;28;20108;-50
2023/02/18 08:39:28;;;;;;;4.50;2.83;;;26.00;79.30;;;;;;5064037;28;20067;-50
2023/02/18 08:41:56;;;;;;;4.32;2.80;;;26.00;79.30;;;;;;5064077;28;20092;-52
2023/02/18 08:44:23;;;;;;;4.50;2.88;;;26.00;79.20;;;;;;5063621;28;20092;-57
2023/02/18 08:46:49;;;;;;;3.95;2.50;;;25.90;79.20;;;;;;5063784;28;20021;-53
2023/02/18 08:49:19;;;;;;;4.25;2.70;;;26.00;79.10;;;;;;5063647;28;20035;-51
2023/02/18 08:51:47;;;;;;;3.33;2.80;;;26.00;79.00;;;;;;5063789;28;20070;-49
2023/02/18 08:54:13;;;;;;;5.20;3.00;;;26.00;78.80;;;;;;5063693;28;20028;-54
2023/02/18 08:56:40;;;;;;;4.60;3.10;;;26.00;78.90;;;;;;5063978;28;20025;-53
2023/02/18 08:59:07;;;;;;;5.07;2.95;;;26.00;78.80;;;;;;5063592;28;20097;-51
2023/02/18 09:01:33;;;;;;;6.40;3.15;;;25.90;78.70;;;;;;5063728;28;20396;-45
2023/02/18 09:04:00;;;;;;;4.63;2.88;;;25.90;78.70;;;;;;5063576;28;20033;-48
2023/02/18 09:06:27;;;;;;;6.35;3.35;;;25.90;78.80;;;;;;5063669;28;20035;-53
2023/02/18 09:08:53;;;;;;;4.93;3.30;;;25.90;78.80;;;;;;5063454;28;20024;-54
2023/02/18 09:11:20;;;;;;;6.65;3.25;;;25.90;78.90;;;;;;5057599;28;20049;-51
2023/02/18 09:13:47;;;;;;;6.45;3.35;;;25.90;78.90;;;;;;5043347;28;20041;-48
2023/02/18 09:16:19;;;;;;;4.97;3.30;;;25.90;79.00;;;;;;5043973;28;20252;-49
2023/02/18 09:18:47;;;;;;;5.43;3.17;;;25.90;79.00;;;;;;5043491;28;20322;-48
2023/02/18 09:21:19;;;;;;;6.47;3.42;;;25.90;78.90;;;;;;5044691;28;20080;-47
2023/02/18 09:23:45;;;;;;;5.28;3.13;;;25.90;79.00;;;;;;5047311;28;20041;-48
2023/02/18 09:26:20;;;;;;;9.82;3.50;;;25.90;79.30;;;;;;5047470;28;20013;-56
2023/02/18 09:28:48;;;;;;;4.35;3.22;;;25.80;79.40;;;;;;5047246;28;20057;-53
2023/02/18 09:31:17;;;;;;;6.25;3.10;;;25.80;79.40;;;;;;5047337;28;20025;-49
2023/02/18 09:33:47;;;;;;;8.07;3.17;;;25.80;79.60;;;;;;5047192;28;20325;-49
2023/02/18 09:36:14;;;;;;;5.00;3.13;;;25.80;79.60;;;;;;5047288;28;20037;-54
2023/02/18 09:38:41;;;;;;;6.10;3.58;;;25.80;79.60;;;;;;5047117;28;20022;-54
2023/02/18 09:41:31;;;;;;;6.55;3.65;;;25.80;79.50;;;;;;5047049;28;20072;-48
2023/02/18 09:44:12;;;;;;;8.32;4.05;;;25.70;79.20;;;;;;5046958;28;20076;-49
2023/02/18 09:46:45;;;;;;;6.72;3.65;;;25.70;79.20;;;;;;5047010;28;20076;-54
2023/02/18 09:49:24;;;;;;;4.75;3.42;;;25.70;78.90;;;;;;5047061;28;20025;-53
2023/02/18 09:51:53;;;;;;;5.03;3.78;;;25.70;79.10;;;;;;5047347;28;20041;-47
2023/02/18 09:54:20;;;;;;;7.05;4.20;;;25.70;79.50;;;;;;5046748;28;20029;-50
2023/02/18 09:56:48;;;;;;;8.40;4.53;;;25.70;79.80;;;;;;5046727;28;20033;-49
2023/02/18 09:59:21;;;;;;;5.72;4.05;;;25.70;79.80;;;;;;5046851;28;20037;-48
2023/02/18 10:01:53;;;;;;;8.55;4.60;;;25.70;79.60;;;;;;5046730;28;20060;-49
2023/02/18 10:04:31;;;;;;;5.72;3.67;;;25.70;79.60;;;;;;5046471;28;20040;-52
2023/02/18 10:06:58;;;;;;;5.93;3.80;;;25.70;79.30;;;;;;5046897;28;20032;-48
2023/02/18 10:09:32;;;;;;;6.03;3.38;;;25.80;79.30;;;;;;5046539;28;20344;-51
2023/02/18 10:12:16;;;;;;;6.78;3.08;;;25.80;79.30;;;;;;5046517;28;20412;-51
2023/02/18 10:14:54;;;;;;;7.32;3.13;;;25.80;79.40;;;;;;5046249;28;20096;-47
2023/02/18 10:17:24;;;;;;;4.32;2.97;;;25.80;79.80;;;;;;5046693;28;20072;-52
2023/02/18 10:19:53;;;;;;;8.05;3.10;;;25.80;79.70;;;;;;5046267;28;20048;-54
2023/02/18 10:22:21;;;;;;;5.38;3.42;;;25.80;79.90;;;;;;5046522;28;20039;-49
2023/02/18 10:24:59;;;;;;;4.93;3.42;;;25.80;80.10;;;;;;5046193;28;20072;-48
2023/02/18 10:27:38;;;;;;;5.72;3.50;;;25.80;80.30;;;;;;5046485;28;20033;-50
2023/02/18 10:30:29;;;;;;;7.95;3.50;;;25.80;80.40;;;;;;5046229;28;20021;-49
2023/02/18 10:33:11;;;;;;;7.47;3.85;;;25.80;80.60;;;;;;5047351;28;20029;-51
2023/02/18 10:35:46;;;;;;;6.80;3.85;;;25.80;80.80;;;;;;5065012;28;20021;-47
2023/02/18 10:38:32;;;;;;;6.75;3.97;;;25.70;81.00;;;;;;5045897;28;20083;-53
2023/02/18 10:41:14;;;;;;;10.13;4.25;;;25.80;81.20;;;;;;5046458;28;20030;-52
2023/02/18 10:44:06;;;;;;;8.60;4.37;;;25.70;81.40;;;;;;5045798;28;20037;-47
2023/02/18 10:46:52;;;;;;;6.90;4.25;;;25.70;81.60;;;;;;5045956;28;20283;-51
2023/02/18 10:49:24;;;;;;;6.70;4.30;;;25.70;81.80;;;;;;5045767;28;20040;-49
2023/02/18 10:51:55;;;;;;;6.90;4.22;;;25.70;82.00;;;;;;5045923;28;20033;-53
2023/02/18 10:54:26;;;;;;;7.75;4.13;;;25.70;82.00;;;;;;5045639;28;20340;-55
2023/02/18 10:56:58;;;;;;;8.55;4.70;;;25.70;82.00;;;;;;5058514;28;20025;-49
2023/02/18 10:59:31;;;;;;;7.45;4.65;;;25.70;82.00;;;;;;5065514;28;20041;-51
2023/02/18 11:02:14;;;;;;;7.28;4.13;;;25.70;82.10;;;;;;5064866;28;20025;-51
2023/02/18 11:04:43;;;;;;;7.68;4.28;;;25.70;82.10;;;;;;5065019;28;20033;-48
2023/02/18 11:07:18;;;;;;;6.43;4.20;;;25.70;82.10;;;;;;5065836;28;20028;-49
2023/02/18 11:09:55;;;;;;;6.53;4.60;;;25.70;82.10;;;;;;5063474;28;20169;-47
2023/02/18 11:12:30;;;;;;;8.05;4.70;;;25.70;82.10;;;;;;5062923;28;20033;-52
2023/02/18 11:15:23;;;;;;;5.20;4.13;;;25.70;82.10;;;;;;5058771;28;20221;-55
2023/02/18 11:17:50;;;;;;;;;;;25.70;82.10;;;;;;5056957;28;20028;-52
2023/02/18 11:20:36;;;;;;;6.88;4.55;;;25.70;82.00;;;;;;5061386;28;19920;-47
2023/02/18 11:23:05;;;;;;;6.57;4.53;;;25.70;82.10;;;;;;5055235;28;20047;-49
2023/02/18 11:25:35;;;;;;;7.68;4.60;;;25.70;82.10;;;;;;5053937;28;20060;-55
2023/02/18 11:28:11;;;;;;;10.90;4.35;;;25.70;82.20;;;;;;5055223;28;20072;-46
2023/02/18 11:30:43;;;;;;;10.13;5.00;;;25.70;82.30;;;;;;5057062;28;20026;-49
2023/02/18 11:33:23;;;;;;;7.05;4.22;;;25.70;82.40;;;;;;5053476;28;20029;-54
2023/02/18 11:35:52;;;;;;;9.05;4.72;;;25.70;82.40;;;;;;5062786;28;20041;-48
2023/02/18 11:38:44;;;;;;;10.57;4.95;;;25.70;82.50;;;;;;5065060;28;20040;-55
2023/02/18 11:41:16;;;;;;;14.73;5.22;;;25.70;82.60;;;;;;5051367;28;20355;-51
2023/02/18 11:43:47;;;;;;;10.55;5.20;;;25.70;82.80;;;;;;5064303;28;20025;-55
2023/02/18 11:46:18;;;;;;;8.73;4.75;;;25.70;82.90;;;;;;5063656;28;20222;-46
2023/02/18 11:48:46;;;;;;;12.55;4.50;;;25.60;83.00;;;;;;5064633;28;20013;-50
2023/02/18 11:51:17;;;;;;;10.45;5.20;;;25.70;83.00;;;;;;5084494;28;20037;-52
2023/02/18 11:54:30;;;;;;;11.77;4.68;;;25.60;82.90;;;;;;5084542;28;20020;-49
2023/02/18 11:56:57;;;;;;;;;;;25.70;83.00;;;;;;5075495;28;20040;-57
2023/02/18 11:59:24;;;;;;;9.48;5.18;;;25.70;83.00;;;;;;5084585;28;19904;-51
2023/02/18 12:02:01;;;;;;;9.25;4.07;;;25.60;82.80;;;;;;5084185;28;20108;-52
2023/02/18 12:04:39;;;;;;;10.75;4.78;;;25.60;83.00;;;;;;5084688;28;20028;-51
2023/02/18 12:07:20;;;;;;;7.82;4.85;;;25.60;83.00;;;;;;5083464;28;20390;-46
2023/02/18 12:09:59;;;;;;;8.68;4.80;;;25.70;83.10;;;;;;5084634;28;20016;-49
2023/02/18 12:12:40;;;;;;;9.75;4.82;;;25.70;83.00;;;;;;5085603;28;20344;-50
2023/02/18 12:15:15;;;;;;;8.40;4.57;;;25.70;83.10;;;;;;5084757;28;20216;-60
2023/02/18 12:18:10;;;;;;;11.52;5.30;;;25.70;83.20;;;;;;5084872;28;20043;-48
2023/02/18 12:20:44;;;;;;;7.53;4.75;;;25.70;83.40;;;;;;5084395;28;20093;-48
2023/02/18 12:23:56;;;;;;;8.32;4.93;;;25.70;83.60;;;;;;5083993;28;20036;-52
2023/02/18 12:26:27;;;;;;;8.68;5.10;;;25.70;83.70;;;;;;5084160;28;20059;-50
2023/02/18 12:29:16;;;;;;;10.45;5.07;;;25.70;83.80;;;;;;5084487;28;20320;-46
2023/02/18 12:32:17;;;;;;;7.55;5.25;;;25.70;84.00;;;;;;5084110;28;20033;-52
2023/02/18 12:34:56;;;;;;;8.57;5.32;;;25.70;83.90;;;;;;5051819;28;20036;-52
2023/02/18 12:37:58;;;;;;;8.13;4.95;;;25.70;83.80;;;;;;5066743;28;20039;-55
2023/02/18 12:41:07;;;;;;;8.32;5.28;;;25.70;83.60;;;;;;5084670;28;20129;-48
2023/02/18 12:44:04;;;;;;;11.40;6.32;;;25.80;83.80;;;;;;5072134;28;20039;-47
2023/02/18 12:46:42;;;;;;;7.78;5.80;;;25.70;83.60;;;;;;5083788;28;20062;-49
2023/02/18 12:49:23;;;;;;;13.80;6.13;;;25.80;83.70;;;;;;5084083;28;20021;-55
2023/02/18 12:52:14;;;;;;;11.45;5.93;;;25.80;83.70;;;;;;5065789;28;20128;-48
2023/02/18 12:55:18;;;;;;;11.00;6.82;;;25.80;84.00;;;;;;5065953;28;20373;-48
2023/02/18 12:58:12;;;;;;;12.13;8.30;;;25.80;84.00;;;;;;5085406;28;20062;-45
2023/02/18 13:00:56;;;;;;;13.15;8.63;;;25.80;84.10;;;;;;5085634;28;20095;-50
2023/02/18 13:04:02;;;;;;;11.43;8.63;;;25.90;84.50;;;;;;5087848;28;20052;-46
2023/02/18 13:07:01;;;;;;;12.75;8.18;;;25.90;84.20;;;;;;5087560;28;20036;-55
2023/02/18 13:10:18;;;;;;;10.98;7.32;;;25.90;84.00;;;;;;5087990;28;20016;-47
2023/02/18 13:13:20;;;;;;;12.90;6.60;;;25.90;83.90;;;;;;5079165;28;20068;-46